createdAt,value
2022-12-18T00:00:45.384Z,-5.05
2022-12-18T00:05:51.875Z,-5.18
2022-12-18T00:10:53.684Z,-5.25
2022-12-18T00:16:06.371Z,-5.28
2022-12-18T00:21:10.542Z,-5.08
2022-12-18T00:26:16.152Z,-4.92
2022-12-18T00:31:21.388Z,-4.79
2022-12-18T00:36:26.918Z,-4.69
2022-12-18T00:41:47.679Z,-4.63
2022-12-18T00:46:50.020Z,-4.60
2022-12-18T00:51:51.953Z,-4.55
2022-12-18T00:56:53.987Z,-4.58
2022-12-18T01:01:56.084Z,-4.68
2022-12-18T01:06:57.935Z,-4.72
2022-12-18T01:11:59.789Z,-4.79
2022-12-18T01:17:03.817Z,-4.87
2022-12-18T01:22:08.262Z,-4.86
2022-12-18T01:27:10.604Z,-4.91
2022-12-18T01:32:12.521Z,-5.02
2022-12-18T01:37:14.831Z,-5.13
2022-12-18T01:42:17.411Z,-5.25
2022-12-18T01:47:25.069Z,-5.38
2022-12-18T01:52:30.437Z,-5.59
2022-12-18T01:57:32.826Z,-5.66
2022-12-18T02:02:35.023Z,-5.71
2022-12-18T02:07:58.135Z,-5.64
2022-12-18T02:13:21.421Z,-5.61
2022-12-18T02:18:30.836Z,-5.60
2022-12-18T02:23:52.893Z,-5.53
2022-12-18T02:29:08.746Z,-5.49
2022-12-18T02:34:13.570Z,-5.45
2022-12-18T02:39:17.014Z,-5.42
2022-12-18T02:44:31.539Z,-5.45
2022-12-18T02:49:54.497Z,-5.64
2022-12-18T02:55:31.677Z,-5.83
2022-12-18T03:00:38.762Z,-5.98
2022-12-18T03:06:13.396Z,-6.05
2022-12-18T03:11:16.283Z,-6.06
2022-12-18T03:16:32.290Z,-6.08
2022-12-18T03:21:41.404Z,-6.20
2022-12-18T03:26:47.389Z,-6.22
2022-12-18T03:31:55.206Z,-6.33
2022-12-18T03:36:57.423Z,-6.44
2022-12-18T03:42:13.557Z,-6.54
2022-12-18T03:48:01.636Z,-6.46
2022-12-18T03:53:34.257Z,-6.50
2022-12-18T03:58:39.258Z,-6.63
2022-12-18T04:03:53.267Z,-6.54
2022-12-18T04:08:56.144Z,-6.46
2022-12-18T04:14:04.685Z,-6.40
2022-12-18T04:19:09.302Z,-6.46
2022-12-18T04:24:15.339Z,-6.51
2022-12-18T04:29:26.613Z,-6.65
2022-12-18T04:34:28.882Z,-6.88
2022-12-18T04:39:31.584Z,-7.05
2022-12-18T04:44:39.117Z,-7.17
2022-12-18T04:49:41.016Z,-7.20
2022-12-18T04:54:43.034Z,-7.20
2022-12-18T04:59:45.578Z,-7.23
2022-12-18T05:04:47.378Z,-7.22
2022-12-18T05:09:49.187Z,-7.02
2022-12-18T05:14:51.013Z,-6.86
2022-12-18T05:19:52.814Z,-6.79
2022-12-18T05:24:54.598Z,-6.78
2022-12-18T05:29:56.383Z,-6.83
2022-12-18T05:34:58.355Z,-6.89
2022-12-18T05:40:00.351Z,-7.02
2022-12-18T05:45:02.184Z,-7.08
2022-12-18T05:50:04.333Z,-7.13
2022-12-18T05:55:06.315Z,-7.16
2022-12-18T06:00:08.902Z,-7.23
2022-12-18T06:05:14.057Z,-7.22
2022-12-18T06:10:15.910Z,-7.11
2022-12-18T06:15:18.121Z,-7.01
2022-12-18T06:20:20.341Z,-6.95
2022-12-18T06:25:22.389Z,-6.92
2022-12-18T06:30:24.255Z,-6.90
2022-12-18T06:35:26.068Z,-7.00
2022-12-18T06:40:27.990Z,-7.03
2022-12-18T06:45:30.068Z,-7.15
2022-12-18T06:50:32.005Z,-7.21
2022-12-18T06:55:33.956Z,-7.38
2022-12-18T07:00:36.000Z,-7.52
2022-12-18T07:05:42.022Z,-7.55
2022-12-18T07:10:47.458Z,-7.59
2022-12-18T07:15:50.247Z,-7.64
2022-12-18T07:20:52.114Z,-7.53
2022-12-18T07:25:54.151Z,-7.41
2022-12-18T07:30:55.953Z,-7.26
2022-12-18T07:36:00.222Z,-6.93
2022-12-18T07:41:07.485Z,-6.66
2022-12-18T07:46:10.976Z,-6.50
2022-12-18T07:51:15.409Z,-6.15
2022-12-18T07:56:27.217Z,-5.86
2022-12-18T08:01:29.894Z,-5.63
2022-12-18T08:06:31.970Z,-5.36
2022-12-18T08:11:33.781Z,-5.09
2022-12-18T08:16:35.731Z,-4.86
2022-12-18T08:21:38.131Z,-4.62
2022-12-18T08:26:39.973Z,-4.31
2022-12-18T08:31:42.317Z,-4.00
2022-12-18T08:36:44.650Z,-3.68
2022-12-18T08:42:10.126Z,-3.32
2022-12-18T08:47:12.253Z,-2.94
2022-12-18T08:52:16.838Z,-2.58
2022-12-18T08:57:19.145Z,-2.26
2022-12-18T09:02:21.075Z,-1.89
2022-12-18T09:07:22.997Z,-1.64
2022-12-18T09:12:24.830Z,-1.46
2022-12-18T09:17:27.367Z,-1.35
2022-12-18T09:22:29.195Z,-1.30
2022-12-18T09:27:30.979Z,-1.24
2022-12-18T09:32:32.790Z,-1.04
2022-12-18T09:37:34.627Z,-0.96
2022-12-18T09:42:36.483Z,-0.79
2022-12-18T09:47:41.668Z,-0.65
2022-12-18T09:52:49.244Z,-0.71
2022-12-18T09:57:56.153Z,-0.71
2022-12-18T10:03:04.638Z,-0.73
2022-12-18T10:08:24.650Z,-0.94
2022-12-18T10:13:42.204Z,-1.04
2022-12-18T10:19:08.761Z,-1.04
2022-12-18T10:24:27.830Z,-0.93
2022-12-18T10:29:29.857Z,-0.85
2022-12-18T10:34:31.787Z,-0.78
2022-12-18T10:39:33.586Z,-0.75
2022-12-18T10:44:35.464Z,-0.90
2022-12-18T10:49:38.605Z,-0.98
2022-12-18T10:54:40.465Z,-0.98
2022-12-18T11:00:25.637Z,-0.98
2022-12-18T11:05:31.923Z,-0.95
2022-12-18T11:10:38.940Z,-0.87
2022-12-18T11:15:42.607Z,-0.94
2022-12-18T11:20:58.645Z,-0.97
2022-12-18T11:26:03.714Z,-0.93
2022-12-18T11:31:27.252Z,-0.92
2022-12-18T11:36:40.556Z,-0.90
2022-12-18T11:42:10.744Z,-0.86
2022-12-18T11:47:30.765Z,-0.75
2022-12-18T11:52:41.607Z,-0.75
2022-12-18T11:57:54.993Z,-0.70
2022-12-18T12:03:05.764Z,-0.69
2022-12-18T12:08:32.869Z,-0.67
2022-12-18T12:13:42.999Z,-0.65
2022-12-18T12:18:54.007Z,-0.56
2022-12-18T12:24:23.700Z,-0.46
2022-12-18T12:30:06.750Z,-0.40
2022-12-18T12:35:19.370Z,-0.34
2022-12-18T12:40:51.414Z,-0.10
2022-12-18T12:46:13.925Z,1.44
2022-12-18T12:51:37.729Z,4.30
2022-12-18T12:57:02.776Z,5.77
2022-12-18T13:02:18.372Z,6.71
2022-12-18T13:07:53.073Z,7.96
2022-12-18T13:12:58.917Z,7.52
2022-12-18T13:18:14.209Z,6.48
2022-12-18T13:23:25.349Z,5.41
2022-12-18T13:28:46.417Z,4.23
2022-12-18T13:34:24.583Z,3.33
2022-12-18T13:39:12.040Z,2.60
2022-12-18T13:44:26.603Z,2.06
2022-12-18T13:49:39.151Z,1.52
2022-12-18T13:54:43.234Z,1.09
2022-12-18T13:59:44.972Z,0.82
2022-12-18T14:04:48.037Z,0.53
2022-12-18T14:10:12.125Z,0.29
2022-12-18T14:15:26.098Z,0.13
2022-12-18T14:20:30.646Z,-0.01
2022-12-18T14:25:33.826Z,-0.12
2022-12-18T14:30:44.098Z,-0.35
2022-12-18T14:36:01.772Z,-0.47
2022-12-18T14:41:07.506Z,-0.71
2022-12-18T14:46:34.046Z,-0.99
2022-12-18T14:51:37.470Z,-1.30
2022-12-18T14:56:48.981Z,-1.49
2022-12-18T15:02:06.086Z,-1.68
2022-12-18T15:07:17.291Z,-1.86
2022-12-18T15:12:43.768Z,-1.90
2022-12-18T15:17:45.563Z,-1.95
2022-12-18T15:22:48.783Z,-2.03
2022-12-18T15:27:50.629Z,-2.07
2022-12-18T15:32:53.891Z,-2.12
2022-12-18T15:37:55.778Z,-2.18
2022-12-18T15:43:15.997Z,-2.19
2022-12-18T15:48:23.720Z,-2.23
2022-12-18T15:53:34.950Z,-2.34
2022-12-18T15:58:36.726Z,-2.41
2022-12-18T16:03:39.105Z,-2.44
2022-12-18T16:08:41.125Z,-2.40
2022-12-18T16:13:43.649Z,-2.48
2022-12-18T16:18:45.715Z,-2.53
2022-12-18T16:23:47.537Z,-2.60
2022-12-18T16:28:49.356Z,-2.66
2022-12-18T16:33:51.100Z,-2.67
2022-12-18T16:38:52.887Z,-2.72
2022-12-18T16:43:55.228Z,-2.76
2022-12-18T16:48:59.822Z,-2.65
2022-12-18T16:54:06.440Z,-2.60
2022-12-18T16:59:12.843Z,-2.55
2022-12-18T17:04:15.273Z,-2.52
2022-12-18T17:09:37.194Z,-2.47
2022-12-18T17:14:39.105Z,-2.48
2022-12-18T17:19:41.159Z,-2.48
2022-12-18T17:24:43.624Z,-2.52
2022-12-18T17:29:48.430Z,-2.44
2022-12-18T17:34:50.694Z,-2.48
2022-12-18T17:39:53.523Z,-2.46
2022-12-18T17:44:55.534Z,-2.41
2022-12-18T17:49:57.370Z,-2.40
2022-12-18T17:54:59.299Z,-2.37
2022-12-18T18:00:01.163Z,-2.38
2022-12-18T18:05:03.015Z,-2.35
2022-12-18T18:10:06.614Z,-2.33
2022-12-18T18:15:09.086Z,-2.30
2022-12-18T18:20:11.840Z,-2.32
2022-12-18T18:25:17.189Z,-2.34
2022-12-18T18:30:23.328Z,-2.36
2022-12-18T18:35:52.929Z,-2.26
2022-12-18T18:40:47.291Z,-2.24
2022-12-18T18:45:49.115Z,-2.20
2022-12-18T18:51:05.171Z,-2.17
2022-12-18T19:01:30.150Z,-2.12
2022-12-18T19:06:32.345Z,-2.18
2022-12-18T19:11:54.258Z,-2.19
2022-12-18T19:16:56.226Z,-2.24
2022-12-18T19:21:58.962Z,-2.28
2022-12-18T19:27:03.070Z,-2.31
2022-12-18T19:32:05.848Z,-2.27
2022-12-18T19:37:07.900Z,-2.22
2022-12-18T19:42:10.104Z,-2.21
2022-12-18T19:47:14.829Z,-2.10
2022-12-18T19:52:18.473Z,-2.10
2022-12-18T19:57:20.391Z,-2.06
2022-12-18T20:02:22.580Z,-2.01
2022-12-18T20:07:26.536Z,-1.93
2022-12-18T20:12:28.575Z,-1.81
2022-12-18T20:17:33.286Z,-1.77
2022-12-18T20:22:35.753Z,-1.71
2022-12-18T20:27:37.657Z,-1.73
2022-12-18T20:32:39.431Z,-1.63
2022-12-18T20:37:43.813Z,-1.57
2022-12-18T20:42:50.424Z,-1.49
2022-12-18T20:47:57.280Z,-1.46
2022-12-18T20:52:58.979Z,-1.41
2022-12-18T20:58:00.651Z,-1.41
2022-12-18T21:03:02.379Z,-1.41
2022-12-18T21:08:04.843Z,-1.28
2022-12-18T21:13:08.460Z,-1.27
2022-12-18T21:18:11.936Z,-1.20
2022-12-18T21:23:16.832Z,-1.11
2022-12-18T21:28:18.809Z,-1.02
2022-12-18T21:33:20.765Z,-0.92
2022-12-18T21:38:22.448Z,-0.93
2022-12-18T21:43:42.862Z,-0.99
2022-12-18T21:48:44.583Z,-0.93
2022-12-18T21:53:46.268Z,-0.90
2022-12-18T21:58:55.378Z,-0.86
2022-12-18T22:03:59.118Z,-0.88
2022-12-18T22:09:00.971Z,-0.91
2022-12-18T22:14:02.757Z,-0.93
2022-12-18T22:19:04.507Z,-0.95
2022-12-18T22:24:10.579Z,-1.00
2022-12-18T22:29:37.189Z,-1.01
2022-12-18T22:34:39.601Z,-1.07
2022-12-18T22:39:41.357Z,-1.08
2022-12-18T22:44:43.624Z,-1.14
2022-12-18T22:49:45.428Z,-1.08
2022-12-18T22:54:47.170Z,-1.06
2022-12-18T22:59:50.072Z,-1.08
2022-12-18T23:04:52.256Z,-1.08
2022-12-18T23:09:59.599Z,-1.05
2022-12-18T23:15:03.625Z,-1.08
2022-12-18T23:20:05.909Z,-1.11
2022-12-18T23:25:08.215Z,-1.13
2022-12-18T23:30:10.565Z,-1.14
2022-12-18T23:35:14.270Z,-1.19
2022-12-18T23:40:17.999Z,-1.24
2022-12-18T23:45:19.741Z,-1.34
2022-12-18T23:50:22.747Z,-1.41
2022-12-18T23:55:32.563Z,-1.48
